createdAt,value
2024-03-26T00:00:49.469Z,68.8320
2024-03-26T00:01:52.273Z,69.0036
2024-03-26T00:02:55.032Z,69.0986
2024-03-26T00:03:57.708Z,69.3528
2024-03-26T00:05:00.398Z,69.2784
2024-03-26T00:06:03.123Z,68.9363
2024-03-26T00:07:05.869Z,69.1380
2024-03-26T00:08:08.534Z,68.3346
2024-03-26T00:09:11.257Z,68.9017
2024-03-26T00:10:14.013Z,68.4175
2024-03-26T00:11:16.736Z,68.6685
2024-03-26T00:12:19.524Z,68.8876
2024-03-26T00:13:22.184Z,69.4344
2024-03-26T00:14:24.953Z,68.7487
2024-03-26T00:15:27.618Z,69.0295
2024-03-26T00:16:30.335Z,68.9948
2024-03-26T00:17:33.017Z,69.2218
2024-03-26T00:18:35.763Z,69.2254
2024-03-26T00:19:38.506Z,69.1128
2024-03-26T00:20:41.184Z,69.0912
2024-03-26T00:21:43.962Z,69.2830
2024-03-26T00:22:46.659Z,69.7971
2024-03-26T00:23:49.346Z,70.0902
2024-03-26T00:24:52.026Z,70.0896
2024-03-26T00:25:54.747Z,69.0787
2024-03-26T00:26:57.562Z,69.0603
2024-03-26T00:28:00.280Z,69.2676
2024-03-26T00:29:02.942Z,69.3509
2024-03-26T00:30:05.702Z,69.1783
2024-03-26T00:31:08.435Z,69.5278
2024-03-26T00:32:11.477Z,69.9492
2024-03-26T00:33:14.223Z,69.7582
2024-03-26T00:34:16.889Z,69.4777
2024-03-26T00:35:19.627Z,69.9200
2024-03-26T00:36:22.457Z,69.8057
2024-03-26T00:37:25.150Z,69.9235
2024-03-26T00:38:27.893Z,70.0689
2024-03-26T00:39:30.629Z,70.3667
2024-03-26T00:40:33.312Z,69.9924
2024-03-26T00:41:36.004Z,69.7275
2024-03-26T00:42:38.651Z,69.9050
2024-03-26T00:43:41.388Z,69.8684
2024-03-26T00:44:44.097Z,69.6501
2024-03-26T00:45:46.820Z,69.6399
2024-03-26T00:46:49.503Z,69.9836
2024-03-26T00:47:52.264Z,70.3406
2024-03-26T00:48:54.941Z,70.1931
2024-03-26T00:49:57.698Z,70.3978
2024-03-26T00:51:00.417Z,70.3615
2024-03-26T00:52:03.177Z,70.4387
2024-03-26T00:53:05.867Z,70.9680
2024-03-26T00:54:08.576Z,71.3057
2024-03-26T00:55:11.242Z,71.9946
2024-03-26T00:56:14.017Z,71.5415
2024-03-26T00:57:16.720Z,71.2868
2024-03-26T00:58:19.458Z,71.5140
2024-03-26T00:59:22.161Z,71.2885
2024-03-26T01:00:24.840Z,70.2899
2024-03-26T01:01:27.531Z,70.2979
2024-03-26T01:02:30.385Z,70.5705
2024-03-26T01:03:33.051Z,71.1799
2024-03-26T01:04:35.776Z,71.4176
2024-03-26T01:05:38.445Z,71.4787
2024-03-26T01:06:41.217Z,71.7613
2024-03-26T01:07:43.906Z,72.1350
2024-03-26T01:08:46.589Z,72.1423
2024-03-26T01:09:49.304Z,72.1364
2024-03-26T01:10:52.176Z,71.5442
2024-03-26T01:11:54.871Z,72.0518
2024-03-26T01:12:57.590Z,72.3527
2024-03-26T01:14:00.252Z,72.5556
2024-03-26T01:15:03.014Z,72.4061
2024-03-26T01:16:05.702Z,72.8322
2024-03-26T01:17:08.445Z,72.6224
2024-03-26T01:18:11.078Z,72.2828
2024-03-26T01:19:13.916Z,72.9759
2024-03-26T01:20:16.891Z,72.9700
2024-03-26T01:21:22.866Z,72.9649
2024-03-26T01:22:22.784Z,72.3192
2024-03-26T01:23:25.440Z,72.5717
2024-03-26T01:24:28.185Z,72.8856
2024-03-26T01:25:31.077Z,72.6902
2024-03-26T01:26:33.858Z,72.0996
2024-03-26T01:27:36.586Z,72.1388
2024-03-26T01:28:39.300Z,71.4099
2024-03-26T01:29:41.969Z,71.5631
2024-03-26T01:30:44.721Z,71.3032
2024-03-26T01:31:47.466Z,71.3158
2024-03-26T01:32:50.217Z,70.9719
2024-03-26T01:33:52.905Z,72.1538
2024-03-26T01:34:55.918Z,71.9561
2024-03-26T01:35:58.670Z,71.5752
2024-03-26T01:37:01.383Z,71.1324
2024-03-26T01:38:04.019Z,71.7292
2024-03-26T01:39:06.794Z,71.8400
2024-03-26T01:40:09.544Z,71.9428
2024-03-26T01:41:12.246Z,72.2678
2024-03-26T01:42:14.984Z,72.4854
2024-03-26T01:43:17.668Z,72.1933
2024-03-26T01:44:20.430Z,72.4094
2024-03-26T01:45:23.137Z,72.7042
2024-03-26T01:46:25.857Z,73.0138
2024-03-26T01:47:28.535Z,72.2009
2024-03-26T01:48:31.309Z,72.3301
2024-03-26T01:49:34.017Z,72.2851
2024-03-26T01:50:36.789Z,72.3448
2024-03-26T01:51:39.522Z,72.6190
2024-03-26T01:52:42.197Z,72.9608
2024-03-26T01:53:44.963Z,72.9911
2024-03-26T01:54:47.698Z,72.7646
2024-03-26T01:55:50.365Z,72.9374
2024-03-26T01:56:53.063Z,73.2443
2024-03-26T01:57:55.732Z,73.4196
2024-03-26T01:58:58.429Z,73.3783
2024-03-26T02:00:01.145Z,73.4341
2024-03-26T02:01:03.941Z,73.6138
2024-03-26T02:02:06.651Z,73.9463
2024-03-26T02:03:09.318Z,74.0739
2024-03-26T02:04:12.102Z,74.5033
2024-03-26T02:05:14.822Z,73.5964
2024-03-26T02:06:17.533Z,73.2864
2024-03-26T02:07:20.219Z,73.7954
2024-03-26T02:08:22.988Z,74.3869
2024-03-26T02:09:25.699Z,74.3031
2024-03-26T02:10:28.410Z,74.0970
2024-03-26T02:11:31.143Z,74.5791
2024-03-26T02:12:33.873Z,75.0618
2024-03-26T02:13:36.607Z,74.6435
2024-03-26T02:14:39.346Z,74.5717
2024-03-26T02:15:42.078Z,74.3230
2024-03-26T02:16:44.802Z,74.3293
2024-03-26T02:17:47.566Z,74.4440
2024-03-26T02:18:50.224Z,73.9215
2024-03-26T02:19:52.960Z,73.6000
2024-03-26T02:20:55.732Z,73.0304
2024-03-26T02:21:58.478Z,72.9629
2024-03-26T02:23:01.188Z,72.9893
2024-03-26T02:24:04.134Z,73.5870
2024-03-26T02:25:06.820Z,73.2000
2024-03-26T02:26:09.558Z,72.8320
2024-03-26T02:27:12.255Z,72.9065
2024-03-26T02:28:14.970Z,73.1658
2024-03-26T02:29:17.742Z,73.1813
2024-03-26T02:30:20.427Z,73.0589
2024-03-26T02:31:23.138Z,73.1980
2024-03-26T02:32:25.962Z,73.4745
2024-03-26T02:33:28.655Z,73.3058
2024-03-26T02:34:31.405Z,73.1088
2024-03-26T02:35:34.131Z,72.8029
2024-03-26T02:36:36.854Z,72.2532
2024-03-26T02:37:39.581Z,72.6674
2024-03-26T02:38:42.358Z,72.9729
2024-03-26T02:39:45.160Z,72.4197
2024-03-26T02:40:47.939Z,72.0641
2024-03-26T02:41:50.717Z,71.8719
2024-03-26T02:42:53.448Z,72.1471
2024-03-26T02:43:56.228Z,72.3412
2024-03-26T02:44:58.963Z,72.5601
2024-03-26T02:46:01.852Z,72.3689
2024-03-26T02:47:04.586Z,72.0863
2024-03-26T02:48:07.324Z,72.6454
2024-03-26T02:49:10.011Z,72.7526
2024-03-26T02:50:12.742Z,72.9436
2024-03-26T02:51:15.458Z,72.8773
2024-03-26T02:52:18.173Z,72.4971
2024-03-26T02:53:20.958Z,72.3435
2024-03-26T02:54:23.675Z,72.7893
2024-03-26T02:55:26.569Z,72.9758
2024-03-26T02:56:29.372Z,71.8739
2024-03-26T02:57:32.113Z,71.9210
2024-03-26T02:58:34.850Z,72.8029
2024-03-26T02:59:37.668Z,73.5153
2024-03-26T03:00:40.556Z,72.7054
2024-03-26T03:01:43.297Z,73.0465
2024-03-26T03:02:47.255Z,73.0771
2024-03-26T03:03:47.137Z,73.1548
2024-03-26T03:04:49.977Z,73.1579
2024-03-26T03:05:52.719Z,73.2692
2024-03-26T03:06:55.425Z,72.4406
2024-03-26T03:07:58.154Z,72.0038
2024-03-26T03:09:00.937Z,71.9080
2024-03-26T03:10:03.751Z,71.5201
2024-03-26T03:11:06.482Z,71.5317
2024-03-26T03:12:09.217Z,71.9281
2024-03-26T03:13:11.996Z,71.7333
2024-03-26T03:14:14.777Z,71.9332
2024-03-26T03:15:17.515Z,72.2383
2024-03-26T03:16:20.244Z,71.7997
2024-03-26T03:17:23.041Z,71.7738
2024-03-26T03:18:25.854Z,71.8845
2024-03-26T03:19:28.578Z,71.8282
2024-03-26T03:20:31.321Z,72.1827
2024-03-26T03:21:34.068Z,72.3377
2024-03-26T03:22:36.840Z,72.6290
2024-03-26T03:23:39.773Z,72.1130
2024-03-26T03:24:42.497Z,72.1077
2024-03-26T03:25:45.262Z,72.5341
2024-03-26T03:26:48.011Z,72.3340
2024-03-26T03:27:50.724Z,72.4528
2024-03-26T03:28:53.437Z,73.0104
2024-03-26T03:29:56.177Z,73.2032
2024-03-26T03:30:58.968Z,73.2327
2024-03-26T03:32:01.696Z,73.4606
2024-03-26T03:33:04.580Z,73.8390
2024-03-26T03:34:07.285Z,73.7695
2024-03-26T03:35:10.040Z,73.4954
2024-03-26T03:36:12.722Z,73.6367
2024-03-26T03:37:15.464Z,73.4982
2024-03-26T03:38:18.165Z,73.4007
2024-03-26T03:39:20.899Z,73.2858
2024-03-26T03:40:23.603Z,72.8912
2024-03-26T03:41:26.340Z,72.4537
2024-03-26T03:42:29.045Z,72.5351
2024-03-26T03:43:31.778Z,72.8495
2024-03-26T03:44:34.495Z,72.7168
2024-03-26T03:45:37.479Z,72.7231
2024-03-26T03:46:40.245Z,73.0813
2024-03-26T03:47:42.988Z,73.8328
2024-03-26T03:48:45.680Z,73.1241
2024-03-26T03:49:48.393Z,72.7498
2024-03-26T03:50:51.242Z,72.1697
2024-03-26T03:51:53.962Z,72.5139
2024-03-26T03:52:56.692Z,72.4798
2024-03-26T03:53:59.420Z,72.1124
2024-03-26T03:55:02.338Z,71.7433
2024-03-26T03:56:05.057Z,71.8781
2024-03-26T03:57:07.785Z,72.5312
2024-03-26T03:58:10.831Z,73.0344
2024-03-26T03:59:13.531Z,73.3977
2024-03-26T04:00:16.272Z,73.5748
2024-03-26T04:01:18.968Z,73.9863
2024-03-26T04:02:21.693Z,73.3004
2024-03-26T04:03:24.460Z,73.2467
2024-03-26T04:04:27.228Z,72.7231
2024-03-26T04:05:29.955Z,73.0727
2024-03-26T04:06:32.731Z,72.6037
2024-03-26T04:07:35.620Z,73.3094
2024-03-26T04:08:38.336Z,72.4855
2024-03-26T04:09:41.048Z,72.7677
2024-03-26T04:10:43.767Z,72.8038
2024-03-26T04:11:46.485Z,73.2977
2024-03-26T04:12:49.299Z,74.0462
2024-03-26T04:13:52.014Z,73.7687
2024-03-26T04:14:54.749Z,74.2147
2024-03-26T04:15:57.696Z,73.4580
2024-03-26T04:17:00.426Z,73.3238
2024-03-26T04:18:03.207Z,72.9303
2024-03-26T04:19:05.977Z,73.0157
2024-03-26T04:20:08.717Z,72.5471
2024-03-26T04:21:11.402Z,72.5853
2024-03-26T04:22:14.140Z,72.9847
2024-03-26T04:23:16.912Z,72.9567
2024-03-26T04:24:19.776Z,73.2357
2024-03-26T04:25:22.593Z,73.5539
2024-03-26T04:26:25.322Z,73.5606
2024-03-26T04:27:28.060Z,73.8509
2024-03-26T04:28:30.808Z,74.3642
2024-03-26T04:29:33.548Z,74.7978
2024-03-26T04:30:36.395Z,74.7222
2024-03-26T04:31:39.142Z,74.8219
2024-03-26T04:32:41.860Z,74.4603
2024-03-26T04:33:44.591Z,74.3764
2024-03-26T04:34:47.271Z,74.1895
2024-03-26T04:35:50.038Z,74.1797
2024-03-26T04:36:52.723Z,74.0051
2024-03-26T04:37:55.457Z,74.1737
2024-03-26T04:38:58.484Z,74.5995
2024-03-26T04:40:01.253Z,74.7673
2024-03-26T04:41:04.007Z,74.8632
2024-03-26T04:42:06.748Z,74.9901
2024-03-26T04:43:09.455Z,74.9596
2024-03-26T04:44:12.207Z,74.9837
2024-03-26T04:45:14.944Z,75.1839
2024-03-26T04:46:17.667Z,75.4573
2024-03-26T04:47:20.605Z,75.5803
2024-03-26T04:48:23.379Z,75.2141
2024-03-26T04:49:26.086Z,74.9885
2024-03-26T04:50:28.887Z,75.2576
2024-03-26T04:51:31.774Z,75.8084
2024-03-26T04:52:34.520Z,75.8426
2024-03-26T04:53:37.342Z,76.1251
2024-03-26T04:54:40.251Z,76.0385
2024-03-26T04:55:42.964Z,76.5429
2024-03-26T04:56:45.684Z,76.5253
2024-03-26T04:57:48.412Z,76.7753
2024-03-26T04:58:51.151Z,77.0856
2024-03-26T04:59:53.860Z,77.6167
2024-03-26T05:00:56.577Z,77.2851
2024-03-26T05:01:59.376Z,76.4829
2024-03-26T05:03:02.135Z,75.9117
2024-03-26T05:04:04.876Z,76.1606
2024-03-26T05:05:07.618Z,76.3901
2024-03-26T05:06:10.430Z,76.6082
2024-03-26T05:07:13.154Z,76.6572
2024-03-26T05:08:15.946Z,76.7072
2024-03-26T05:09:18.649Z,76.7353
2024-03-26T05:10:21.397Z,76.9750
2024-03-26T05:11:24.154Z,77.2720
2024-03-26T05:12:27.220Z,76.9660
2024-03-26T05:13:29.925Z,76.9062
2024-03-26T05:14:32.890Z,76.7667
2024-03-26T05:15:35.612Z,76.8257
2024-03-26T05:16:38.379Z,76.1980
2024-03-26T05:17:41.118Z,76.2887
2024-03-26T05:18:43.852Z,76.7623
2024-03-26T05:19:46.584Z,76.7632
2024-03-26T05:20:49.348Z,76.1280
2024-03-26T05:21:52.196Z,76.1492
2024-03-26T05:22:55.009Z,76.1289
2024-03-26T05:23:57.755Z,76.2541
2024-03-26T05:25:00.503Z,76.3214
2024-03-26T05:26:03.456Z,76.1535
2024-03-26T05:27:06.239Z,75.9252
2024-03-26T05:28:08.967Z,76.2939
2024-03-26T05:29:11.776Z,76.8413
2024-03-26T05:30:14.478Z,76.4389
2024-03-26T05:31:17.159Z,75.7639
2024-03-26T05:32:19.845Z,75.7568
2024-03-26T05:33:22.556Z,75.8772
2024-03-26T05:34:25.344Z,75.8665
2024-03-26T05:35:28.271Z,75.9854
2024-03-26T05:36:30.971Z,76.1806
2024-03-26T05:37:33.669Z,76.6154
2024-03-26T05:38:36.442Z,76.2937
2024-03-26T05:39:39.085Z,76.0450
2024-03-26T05:40:41.860Z,75.9999
2024-03-26T05:41:44.536Z,76.0679
2024-03-26T05:42:47.291Z,76.2729
2024-03-26T05:43:50.028Z,76.7168
2024-03-26T05:44:52.793Z,76.7931
2024-03-26T05:45:55.436Z,76.8465
2024-03-26T05:46:58.177Z,77.1750
2024-03-26T05:48:00.900Z,77.0800
2024-03-26T05:49:03.622Z,76.7415
2024-03-26T05:50:06.303Z,76.4137
2024-03-26T05:51:09.037Z,76.0611
2024-03-26T05:52:11.778Z,76.1423
2024-03-26T05:53:14.500Z,76.3695
2024-03-26T05:54:17.186Z,76.0804
2024-03-26T05:55:19.937Z,75.8907
2024-03-26T05:56:22.993Z,75.1775
2024-03-26T05:57:25.694Z,75.3533
2024-03-26T05:58:28.422Z,74.8893
2024-03-26T05:59:31.124Z,74.8348
2024-03-26T06:00:33.891Z,75.5552
2024-03-26T06:01:36.587Z,75.8350
2024-03-26T06:02:39.359Z,75.3067
2024-03-26T06:03:42.054Z,75.4458
2024-03-26T06:04:44.739Z,75.1715
2024-03-26T06:05:47.570Z,75.1336
2024-03-26T06:06:50.254Z,75.4777
2024-03-26T06:07:52.916Z,75.3286
2024-03-26T06:08:55.690Z,75.4848
2024-03-26T06:09:58.347Z,75.2600
2024-03-26T06:11:01.058Z,75.2510
2024-03-26T06:12:03.741Z,75.2667
2024-03-26T06:13:07.785Z,75.3491
2024-03-26T06:14:07.084Z,74.6898
2024-03-26T06:15:09.786Z,75.1590
2024-03-26T06:16:12.474Z,75.5501
2024-03-26T06:17:15.146Z,75.2277
2024-03-26T06:18:17.809Z,75.0173
2024-03-26T06:19:20.585Z,74.3938
2024-03-26T06:20:23.250Z,73.8716
2024-03-26T06:21:25.997Z,73.8732
2024-03-26T06:22:28.762Z,73.6646
2024-03-26T06:23:31.528Z,73.5133
2024-03-26T06:24:34.173Z,73.0202
2024-03-26T06:25:36.869Z,73.0716
2024-03-26T06:26:39.613Z,72.9094
2024-03-26T06:27:42.288Z,73.2060
2024-03-26T06:28:45.056Z,73.1698
2024-03-26T06:29:47.782Z,72.6521
2024-03-26T06:30:50.491Z,72.6023
2024-03-26T06:31:53.234Z,73.0183
2024-03-26T06:32:55.987Z,72.5920
2024-03-26T06:33:58.678Z,72.6318
2024-03-26T06:35:01.373Z,72.4975
2024-03-26T06:36:04.100Z,72.4459
2024-03-26T06:37:06.805Z,72.0045
2024-03-26T06:38:09.880Z,71.4204
2024-03-26T06:39:12.625Z,72.0862
2024-03-26T06:40:15.319Z,72.6283
2024-03-26T06:41:17.996Z,71.5078
2024-03-26T06:42:20.746Z,71.6487
2024-03-26T06:43:23.459Z,72.1079
2024-03-26T06:44:26.231Z,72.1089
2024-03-26T06:45:29.223Z,71.9443
2024-03-26T06:46:31.918Z,71.2507
2024-03-26T06:47:34.650Z,71.5078
2024-03-26T06:48:37.387Z,71.3420
2024-03-26T06:49:40.147Z,71.3910
2024-03-26T06:50:42.836Z,71.0841
2024-03-26T06:51:46.135Z,70.9688
2024-03-26T06:52:48.926Z,70.3936
2024-03-26T06:53:51.608Z,69.7882
2024-03-26T06:54:54.352Z,69.9797
2024-03-26T06:55:57.076Z,69.9202
2024-03-26T06:56:59.780Z,70.2257
2024-03-26T06:58:02.558Z,69.4375
2024-03-26T06:59:05.212Z,69.6889
2024-03-26T07:00:07.922Z,70.6448
2024-03-26T07:01:10.591Z,69.2754
2024-03-26T07:02:13.390Z,69.0724
2024-03-26T07:03:16.142Z,69.0411
2024-03-26T07:04:18.817Z,69.0416
2024-03-26T07:05:21.536Z,69.2122
2024-03-26T07:06:24.256Z,69.2549
2024-03-26T07:07:26.993Z,69.1670
2024-03-26T07:08:29.687Z,69.3351
2024-03-26T07:09:32.362Z,69.2659
2024-03-26T07:10:35.134Z,69.2253
2024-03-26T07:11:37.868Z,69.1965
2024-03-26T07:12:40.557Z,68.8371
2024-03-26T07:13:43.232Z,69.0540
2024-03-26T07:14:46.036Z,69.6514
2024-03-26T07:15:48.820Z,69.5321
2024-03-26T07:16:51.478Z,69.4898
2024-03-26T07:17:54.209Z,69.5783
2024-03-26T07:18:56.873Z,70.0268
2024-03-26T07:19:59.631Z,69.8045
2024-03-26T07:21:02.340Z,69.5421
2024-03-26T07:22:05.115Z,69.5670
2024-03-26T07:23:07.754Z,70.2834
2024-03-26T07:24:10.503Z,70.5764
2024-03-26T07:25:13.241Z,70.5436
2024-03-26T07:26:15.960Z,70.4081
2024-03-26T07:27:18.663Z,70.5516
2024-03-26T07:28:21.374Z,70.9037
2024-03-26T07:29:24.099Z,70.6066
2024-03-26T07:30:26.844Z,70.3245
2024-03-26T07:31:29.511Z,70.1609
2024-03-26T07:32:32.223Z,70.2445
2024-03-26T07:33:34.985Z,70.2980
2024-03-26T07:34:37.723Z,69.9920
2024-03-26T07:35:40.443Z,69.7434
2024-03-26T07:36:43.162Z,69.3118
2024-03-26T07:37:45.859Z,69.1050
2024-03-26T07:38:48.591Z,68.8707
2024-03-26T07:39:51.277Z,69.2537
2024-03-26T07:40:53.998Z,68.9866
2024-03-26T07:41:56.743Z,68.9282
2024-03-26T07:43:01.417Z,67.8934
2024-03-26T07:43:59.419Z,67.9689
2024-03-26T07:45:02.536Z,68.2500
2024-03-26T07:46:05.208Z,67.8241
2024-03-26T07:47:08.098Z,66.1566
2024-03-26T07:48:10.857Z,66.0963
2024-03-26T07:49:13.561Z,66.2850
2024-03-26T07:50:16.302Z,66.1271
2024-03-26T07:51:19.646Z,66.2671
2024-03-26T07:52:19.545Z,65.5371
2024-03-26T07:53:22.333Z,65.3752
2024-03-26T07:54:24.947Z,66.5810
2024-03-26T07:55:27.688Z,65.5952
2024-03-26T07:56:30.389Z,65.2460
2024-03-26T07:57:33.115Z,64.8805
2024-03-26T07:58:35.786Z,64.9944
2024-03-26T07:59:38.533Z,64.4794
2024-03-26T08:00:41.323Z,63.8233
2024-03-26T08:01:44.263Z,63.5099
2024-03-26T08:02:46.948Z,63.9008
2024-03-26T08:03:49.712Z,64.2766
2024-03-26T08:04:52.414Z,64.3726
2024-03-26T08:05:55.220Z,63.7739
2024-03-26T08:06:57.941Z,63.2458
2024-03-26T08:08:00.878Z,62.4521
2024-03-26T08:09:03.612Z,62.7416
2024-03-26T08:10:06.399Z,63.2337
2024-03-26T08:11:09.381Z,63.2452
2024-03-26T08:12:12.050Z,63.4392
2024-03-26T08:13:14.823Z,63.7391
2024-03-26T08:14:17.581Z,63.1590
2024-03-26T08:15:20.303Z,62.8941
2024-03-26T08:16:23.032Z,62.4053
2024-03-26T08:17:25.735Z,62.3064
2024-03-26T08:18:28.493Z,62.0372
2024-03-26T08:19:31.630Z,61.2604
2024-03-26T08:20:31.383Z,62.1556
2024-03-26T08:21:34.079Z,61.8881
2024-03-26T08:22:36.761Z,61.1158
2024-03-26T08:23:39.480Z,59.9755
2024-03-26T08:24:42.240Z,60.6566
2024-03-26T08:25:44.940Z,59.6264
2024-03-26T08:26:47.636Z,60.1139
2024-03-26T08:27:50.341Z,60.3911
2024-03-26T08:28:53.069Z,59.7094
2024-03-26T08:29:55.777Z,59.5287
2024-03-26T08:30:58.519Z,59.8319
2024-03-26T08:32:01.218Z,60.4128
2024-03-26T08:33:04.408Z,59.6329
2024-03-26T08:34:07.142Z,58.1654
2024-03-26T08:35:09.859Z,59.3199
2024-03-26T08:36:13.017Z,59.7055
2024-03-26T08:37:12.670Z,58.6419
2024-03-26T08:38:15.355Z,58.0958
2024-03-26T08:39:18.055Z,57.9388
2024-03-26T08:40:20.941Z,56.9610
2024-03-26T08:41:23.793Z,56.7057
2024-03-26T08:42:26.519Z,57.4848
2024-03-26T08:43:29.285Z,57.5845
2024-03-26T08:44:32.351Z,58.9457
2024-03-26T08:45:35.019Z,59.0170
2024-03-26T08:46:37.706Z,58.6927
2024-03-26T08:47:40.428Z,58.7090
2024-03-26T08:48:43.152Z,58.5552
2024-03-26T08:49:45.860Z,58.3905
2024-03-26T08:50:48.606Z,58.0697
2024-03-26T08:51:52.202Z,58.6190
2024-03-26T08:52:51.571Z,59.4948
2024-03-26T08:53:54.279Z,59.9343
2024-03-26T08:54:56.979Z,59.9236
2024-03-26T08:56:08.565Z,59.5210
2024-03-26T08:57:01.407Z,58.8145
2024-03-26T08:58:04.058Z,58.7556
2024-03-26T08:59:06.806Z,58.5817
2024-03-26T09:00:09.557Z,58.5451
2024-03-26T09:01:12.279Z,59.8710
2024-03-26T09:02:14.992Z,58.3542
2024-03-26T09:03:17.772Z,57.9499
2024-03-26T09:04:21.934Z,58.3427
2024-03-26T09:05:22.608Z,58.6880
2024-03-26T09:06:25.299Z,58.7637
2024-03-26T09:07:28.206Z,58.0048
2024-03-26T09:08:31.000Z,58.5945
2024-03-26T09:09:33.696Z,57.8417
2024-03-26T09:10:36.431Z,58.4204
2024-03-26T09:11:39.146Z,57.6438
2024-03-26T09:12:41.865Z,57.5346
2024-03-26T09:13:45.019Z,56.7007
2024-03-26T09:14:47.692Z,56.8381
2024-03-26T09:15:50.482Z,57.5351
2024-03-26T09:16:53.192Z,57.1149
2024-03-26T09:17:55.922Z,56.5894
2024-03-26T09:19:01.701Z,57.3282
2024-03-26T09:20:01.641Z,55.2475
2024-03-26T09:21:04.366Z,56.6784
2024-03-26T09:22:07.316Z,56.5410
2024-03-26T09:23:10.026Z,55.9877
2024-03-26T09:24:12.719Z,56.7137
2024-03-26T09:25:15.460Z,55.5948
2024-03-26T09:26:18.195Z,56.6054
2024-03-26T09:27:20.922Z,55.8669
2024-03-26T09:28:23.692Z,55.2398
2024-03-26T09:29:26.365Z,54.5524
2024-03-26T09:30:29.377Z,54.0732
2024-03-26T09:31:32.141Z,53.4337
2024-03-26T09:32:34.830Z,53.9004
2024-03-26T09:33:37.597Z,53.9867
2024-03-26T09:34:40.332Z,55.9818
2024-03-26T09:35:43.308Z,55.9335
2024-03-26T09:36:46.158Z,54.7783
2024-03-26T09:37:49.941Z,54.6584
2024-03-26T09:38:51.048Z,54.0905
2024-03-26T09:39:51.748Z,54.2658
2024-03-26T09:40:54.555Z,54.2222
2024-03-26T09:41:57.439Z,54.3855
2024-03-26T09:43:00.167Z,53.7892
2024-03-26T09:44:03.050Z,54.2379
2024-03-26T09:45:06.857Z,55.1733
2024-03-26T09:46:06.659Z,56.5774
2024-03-26T09:47:09.377Z,56.2453
2024-03-26T09:48:12.096Z,57.1973
2024-03-26T09:49:14.830Z,58.1135
2024-03-26T09:50:17.628Z,56.1631
2024-03-26T09:51:20.571Z,56.2154
2024-03-26T09:52:23.331Z,55.7833
2024-03-26T09:53:26.068Z,54.9081
2024-03-26T09:54:28.996Z,54.9459
2024-03-26T09:55:31.805Z,55.6550
2024-03-26T09:56:34.528Z,54.6810
2024-03-26T09:57:37.274Z,55.5980
2024-03-26T09:58:40.289Z,54.7273
2024-03-26T09:59:43.093Z,56.9819
2024-03-26T10:00:45.834Z,53.9247
2024-03-26T10:01:48.548Z,54.3247
2024-03-26T10:02:51.454Z,53.8034
2024-03-26T10:03:54.509Z,54.3686
2024-03-26T10:04:57.244Z,54.1718
2024-03-26T10:06:00.097Z,54.1193
2024-03-26T10:07:02.982Z,56.3403
2024-03-26T10:08:05.715Z,56.3843
2024-03-26T10:09:08.735Z,56.2759
2024-03-26T10:10:11.488Z,57.7290
2024-03-26T10:11:14.273Z,56.6836
2024-03-26T10:12:17.243Z,58.6880
2024-03-26T10:13:20.003Z,57.2185
2024-03-26T10:14:22.771Z,56.3411
2024-03-26T10:15:25.700Z,55.0429
2024-03-26T10:16:28.426Z,55.4332
2024-03-26T10:17:33.250Z,57.4975
2024-03-26T10:18:32.854Z,55.6439
2024-03-26T10:19:35.608Z,57.2585
2024-03-26T10:20:38.412Z,57.0013
2024-03-26T10:21:41.373Z,55.2824
2024-03-26T10:22:44.108Z,55.9998
2024-03-26T10:23:46.901Z,56.2698
2024-03-26T10:24:49.858Z,55.1577
2024-03-26T10:25:52.572Z,56.0961
2024-03-26T10:26:55.381Z,55.2639
2024-03-26T10:27:58.097Z,54.9148
2024-03-26T10:29:01.082Z,55.1443
2024-03-26T10:30:03.886Z,55.5686
2024-03-26T10:31:06.653Z,56.0647
2024-03-26T10:32:09.629Z,57.2046
2024-03-26T10:33:12.560Z,57.9796
2024-03-26T10:34:15.245Z,58.2564
2024-03-26T10:35:18.021Z,57.4623
2024-03-26T10:36:20.815Z,57.4780
2024-03-26T10:37:23.548Z,57.4998
2024-03-26T10:38:26.487Z,58.0201
2024-03-26T10:39:29.285Z,57.9154
2024-03-26T10:40:32.021Z,58.9828
2024-03-26T10:41:34.935Z,57.3968
2024-03-26T10:42:37.968Z,58.1325
2024-03-26T10:43:40.695Z,56.6958
2024-03-26T10:44:43.704Z,56.5992
2024-03-26T10:45:59.960Z,57.5533
2024-03-26T10:46:49.399Z,55.7212
2024-03-26T10:47:48.938Z,56.8531
2024-03-26T10:48:57.495Z,57.5592
2024-03-26T10:49:53.414Z,58.4507
2024-03-26T10:50:56.625Z,58.0792
2024-03-26T10:51:59.377Z,56.7724
2024-03-26T10:53:02.296Z,58.3820
2024-03-26T10:54:05.103Z,58.6998
2024-03-26T10:55:07.830Z,58.9643
2024-03-26T10:56:10.714Z,57.5536
2024-03-26T10:57:13.478Z,56.8877
2024-03-26T10:58:16.201Z,56.9644
2024-03-26T10:59:18.979Z,56.8435
2024-03-26T11:00:21.946Z,57.0497
2024-03-26T11:01:24.666Z,57.0612
2024-03-26T11:02:27.396Z,57.3612
2024-03-26T11:03:30.106Z,57.1885
2024-03-26T11:04:32.831Z,57.3409
2024-03-26T11:05:35.861Z,54.9911
2024-03-26T11:06:38.606Z,52.1382
2024-03-26T11:07:41.577Z,51.7360
2024-03-26T11:08:44.360Z,51.5952
2024-03-26T11:09:47.115Z,50.7001
2024-03-26T11:10:52.500Z,49.9563
2024-03-26T11:11:52.099Z,50.8290
2024-03-26T11:12:54.890Z,51.3724
2024-03-26T11:13:57.639Z,48.6732
2024-03-26T11:15:00.454Z,50.4056
2024-03-26T11:16:03.799Z,48.8642
2024-03-26T11:17:04.044Z,49.0080
2024-03-26T11:18:06.936Z,48.5454
2024-03-26T11:19:09.727Z,47.4711
2024-03-26T11:20:12.668Z,45.0236
2024-03-26T11:21:15.396Z,45.4570
2024-03-26T11:22:18.459Z,46.3085
2024-03-26T11:23:21.258Z,45.5957
2024-03-26T11:24:23.998Z,45.4811
2024-03-26T11:25:26.788Z,45.8089
2024-03-26T11:26:29.657Z,45.4093
2024-03-26T11:27:32.676Z,44.4802
2024-03-26T11:28:35.391Z,44.5998
2024-03-26T11:29:38.302Z,45.5779
2024-03-26T11:30:41.157Z,48.3625
2024-03-26T11:31:43.956Z,45.7410
2024-03-26T11:32:46.707Z,45.5169
2024-03-26T11:33:49.631Z,47.3621
2024-03-26T11:34:52.459Z,48.3212
2024-03-26T11:35:55.202Z,48.3925
2024-03-26T11:36:58.108Z,46.1950
2024-03-26T11:38:03.485Z,44.8586
2024-03-26T11:39:03.087Z,43.0835
2024-03-26T11:40:06.024Z,43.6214
2024-03-26T11:41:08.984Z,42.3762
2024-03-26T11:42:11.867Z,40.4288
2024-03-26T11:43:14.762Z,40.9203
2024-03-26T11:44:17.554Z,40.0597
2024-03-26T11:45:20.518Z,41.4668
2024-03-26T11:46:23.267Z,45.1256
2024-03-26T11:47:26.101Z,45.3493
2024-03-26T11:48:28.844Z,45.3482
2024-03-26T11:49:31.762Z,46.3433
2024-03-26T11:50:34.536Z,46.5755
2024-03-26T11:51:37.869Z,45.5387
2024-03-26T11:52:38.301Z,44.6702
2024-03-26T11:53:41.310Z,45.2914
2024-03-26T11:54:44.118Z,47.3346
2024-03-26T11:55:47.085Z,48.5585
2024-03-26T11:56:49.848Z,46.1810
2024-03-26T11:57:52.625Z,45.4329
2024-03-26T11:58:55.578Z,45.6061
2024-03-26T11:59:58.326Z,45.1059
2024-03-26T12:01:01.099Z,44.1913
2024-03-26T12:02:03.839Z,44.9361
2024-03-26T12:03:06.796Z,45.9250
2024-03-26T12:04:09.524Z,46.6092
2024-03-26T12:05:12.527Z,46.3589
2024-03-26T12:06:15.245Z,46.9863
2024-03-26T12:07:17.996Z,46.6645
2024-03-26T12:08:20.749Z,44.5075
2024-03-26T12:09:23.545Z,44.7448
2024-03-26T12:10:26.317Z,45.3731
2024-03-26T12:11:29.191Z,44.0433
2024-03-26T12:12:31.879Z,46.2054
2024-03-26T12:13:34.607Z,45.9713
2024-03-26T12:14:37.345Z,43.8184
2024-03-26T12:15:40.374Z,43.1948
2024-03-26T12:16:43.331Z,40.4829
2024-03-26T12:17:46.230Z,39.1462
2024-03-26T12:18:48.969Z,39.8367
2024-03-26T12:19:51.882Z,41.9153
2024-03-26T12:20:54.946Z,41.1835
2024-03-26T12:21:57.693Z,39.6087
2024-03-26T12:23:00.492Z,40.7452
2024-03-26T12:24:03.272Z,40.8448
2024-03-26T12:25:06.166Z,39.2383
2024-03-26T12:26:08.910Z,41.0747
2024-03-26T12:27:11.844Z,44.7613
2024-03-26T12:28:14.649Z,44.3832
2024-03-26T12:29:17.399Z,41.5869
2024-03-26T12:30:20.404Z,40.0326
2024-03-26T12:31:23.325Z,38.5868
2024-03-26T12:32:26.124Z,39.5629
2024-03-26T12:33:28.949Z,38.9272
2024-03-26T12:34:31.871Z,37.4962
2024-03-26T12:35:34.624Z,38.0938
2024-03-26T12:36:37.460Z,37.9253
2024-03-26T12:37:40.390Z,37.8408
2024-03-26T12:38:43.128Z,38.4783